Alexandra, New Zealand
Current Conditions -  °F | °C
As of 12:00 PM on Saturday 25 Oct 2014 (Local Time) from NZCH Reporting Station
Clear Clear  
Wind Chill: 57°   Ceiling: Unl
Heat Index: 57°   Visibility: 6mi
Dew Point: 41°   Wind: 18mph
Humidity: 55%   Direction: 60°ENE
Pressure: 30.09"   Gusts: NA
Location:  45.25°S, 169.39°E
Report Text: NZCH 250000Z AUTO 06016KT 9999 NCD 14/05 Q1019 NOSIG
Loading
Personal Weather Stations






























Interactive Weather Map New forecast layout! Learn more

10-Day Weather Forecast

Advertisements
Track Severe Weather on mobile